No 32takemaru — JG5746 — position and weather

sailwx.info

Track history (hours):
 
Tides and Currents Weather Stations Pressure Air Temp Water Temp Dewpoint Dewpoint Depression Visibility Wind Speed Wind Dir Waves Ship Positions

No 32takemaru

Last reported at 2017-Sep-21 23:28 UTC. Time now 2017-Sep-22 09:47 UTC.
Position N 34°39' E 135°28'.

Length 38 m; draft 2.8 m.

Type: Tug. MMSI: 431000341.

Date/timePositionNaut miles runAvg speedWind from/ knotsBaromVisibWave heightAir tempDewpointWater temp
2017-Sep-21 23:28N 34°39' E 135°28'1 2.9
2017-Sep-21 22:57N 34°40' E 135°27'0 0.4
2017-Sep-21 22:30N 34°40' E 135°27'2 4.1
2017-Sep-21 22:00N 34°39' E 135°24'0 0.4
2017-Sep-21 21:28N 34°39' E 135°24'2 4.4
2017-Sep-21 21:00N 34°39' E 135°27'1 0.1
2017-Sep-21 11:34N 34°39' E 135°28'1 8.2
2017-Sep-21 11:30N 34°39' E 135°27'2 3.4
2017-Sep-21 11:00N 34°39' E 135°25'1 2.2
2017-Sep-21 10:30N 34°39' E 135°24'3 5.6
2017-Sep-21 09:59N 34°39' E 135°27'0 0.0
2017-Sep-20 23:27N 34°39' E 135°28'2 4.3
2017-Sep-20 22:59N 34°39' E 135°26'2 3.7
2017-Sep-20 22:30N 34°38' E 135°23'0 0.4
2017-Sep-20 22:00N 34°39' E 135°24'0 0.7
2017-Sep-20 21:30N 34°39' E 135°24'0 0.2
2017-Sep-20 21:00N 34°39' E 135°24'0 0.1
2017-Sep-20 20:30N 34°39' E 135°24'3 0.4
2017-Sep-20 12:13N 34°39' E 135°28'0 0.0
2017-Sep-20 12:00N 34°39' E 135°28'0 0.0
2017-Sep-20 11:30N 34°39' E 135°28'0 0.0
2017-Sep-20 11:00N 34°39' E 135°28'0 0.0
2017-Sep-19 22:25N 34°39' E 135°28'0 0.0
2017-Sep-19 21:45N 34°39' E 135°28'0 0.0
2017-Sep-18 23:53N 34°39' E 135°28'0 0.0
2017-Sep-18 23:09N 34°39' E 135°28'0 0.0
2017-Sep-18 23:00N 34°39' E 135°28'0 0.0
2017-Sep-18 22:16N 34°39' E 135°28'0 0.0
2017-Sep-18 21:57N 34°39' E 135°28'0 0.0
2017-Sep-18 21:30N 34°39' E 135°28'0 0.0
2017-Sep-18 20:54N 34°39' E 135°28'0 0.0
2017-Sep-18 18:55N 34°39' E 135°28'0 0.0
2017-Sep-18 18:14N 34°39' E 135°28'0 0.0
2017-Sep-18 18:00N 34°39' E 135°28'0 0.0
2017-Sep-18 17:27N 34°39' E 135°28'0 0.0
2017-Sep-18 16:52N 34°39' E 135°28'0 0.0
2017-Sep-18 16:00N 34°39' E 135°28'0 0.0
2017-Sep-18 15:29N 34°39' E 135°28'0 0.0
2017-Sep-18 15:00N 34°39' E 135°28'0 0.0
2017-Sep-18 14:17N 34°39' E 135°28'0 0.0
2017-Sep-18 10:45N 34°39' E 135°28'0 0.0
2017-Sep-18 10:22N 34°39' E 135°28'0 0.0
2017-Sep-18 09:50N 34°39' E 135°28'0 0.0
2017-Sep-18 09:27N 34°39' E 135°28'0 0.0
2017-Sep-18 08:56N 34°39' E 135°28'0 0.0
2017-Sep-18 08:28N 34°39' E 135°28'0 0.0
2017-Sep-18 07:09N 34°39' E 135°28'0 0.0
2017-Sep-18 06:53N 34°39' E 135°28'0 0.0
2017-Sep-18 06:29N 34°39' E 135°28'0 0.0
2017-Sep-18 05:53N 34°39' E 135°28'0 0.0
2017-Sep-18 05:30N 34°39' E 135°28'0 0.0
2017-Sep-18 04:59N 34°39' E 135°28'0 0.0
2017-Sep-18 04:29N 34°39' E 135°28'0 0.0
2017-Sep-18 03:45N 34°39' E 135°28'0 0.0
2017-Sep-18 03:30N 34°39' E 135°28'0 0.0
2017-Sep-18 03:00N 34°39' E 135°28'0 0.0
2017-Sep-18 02:29N 34°39' E 135°28'0 0.0
2017-Sep-18 02:00N 34°39' E 135°28'0 0.0
2017-Sep-18 01:27N 34°39' E 135°28'0 0.0
2017-Sep-18 00:59N 34°39' E 135°28'0 0.0
2017-Sep-18 00:29N 34°39' E 135°28'0 0.0
2017-Sep-18 00:00N 34°39' E 135°28'0 0.0
2017-Sep-17 23:30N 34°39' E 135°28'0 0.0
2017-Sep-17 23:00N 34°39' E 135°28'0 0.0
2017-Sep-17 22:30N 34°39' E 135°28'0 0.0
2017-Sep-17 22:00N 34°39' E 135°28'0 0.0
2017-Sep-17 21:29N 34°39' E 135°28'0 0.0
2017-Sep-17 21:00N 34°39' E 135°28'0 0.0
2017-Sep-17 20:30N 34°39' E 135°28'0 0.0
2017-Sep-17 20:00N 34°39' E 135°28'0 0.0
2017-Sep-17 19:30N 34°39' E 135°28'0 0.0
2017-Sep-17 19:00N 34°39' E 135°28'0 0.0
2017-Sep-17 18:30N 34°39' E 135°28'0 0.0
2017-Sep-17 18:00N 34°39' E 135°28'0 0.0
2017-Sep-17 17:30N 34°39' E 135°28'0 0.0
2017-Sep-17 17:00N 34°39' E 135°28'0 0.0
2017-Sep-17 16:30N 34°39' E 135°28'0 0.0
2017-Sep-17 16:00N 34°39' E 135°28'0 0.0
2017-Sep-17 15:30N 34°39' E 135°28'0 0.0
2017-Sep-17 15:00N 34°39' E 135°28'0 0.0
2017-Sep-17 14:30N 34°39' E 135°28'0 0.0
2017-Sep-17 14:00N 34°39' E 135°28'0 0.0
2017-Sep-17 13:16N 34°39' E 135°28'0 0.0
2017-Sep-17 12:54N 34°39' E 135°28'0 0.0
2017-Sep-17 12:29N 34°39' E 135°28'0 0.0
2017-Sep-17 02:07N 34°39' E 135°28'0 0.0
2017-Sep-17 01:55N 34°39' E 135°28'0 0.0
2017-Sep-17 01:24N 34°39' E 135°28'0 0.0
2017-Sep-17 00:57N 34°39' E 135°28'0 0.0
2017-Sep-17 00:30N 34°39' E 135°28'0 0.0
2017-Sep-17 00:00N 34°39' E 135°28'0 0.0
2017-Sep-16 23:30N 34°39' E 135°28'0 0.0
2017-Sep-16 23:00N 34°39' E 135°28'0 0.0
2017-Sep-16 22:30N 34°39' E 135°28'0 0.0
2017-Sep-16 22:00N 34°39' E 135°28'0 0.0
2017-Sep-16 21:30N 34°39' E 135°28'0 0.0
2017-Sep-16 21:00N 34°39' E 135°28'0 0.0
2017-Sep-16 20:30N 34°39' E 135°28'0 0.0
2017-Sep-16 20:00N 34°39' E 135°28'0 0.0
2017-Sep-16 19:30N 34°39' E 135°28'0 0.0
2017-Sep-16 19:00N 34°39' E 135°28'0 0.0
2017-Sep-16 18:30N 34°39' E 135°28'0 0.0
2017-Sep-16 18:00N 34°39' E 135°28'0 0.0
2017-Sep-16 17:30N 34°39' E 135°28'0 0.0
2017-Sep-16 17:00N 34°39' E 135°28'0 0.0
2017-Sep-16 16:30N 34°39' E 135°28'0 0.0
2017-Sep-16 16:00N 34°39' E 135°28'0 0.0
2017-Sep-16 15:30N 34°39' E 135°28'0 0.0
2017-Sep-16 14:59N 34°39' E 135°28'0 0.0
2017-Sep-16 14:30N 34°39' E 135°28'0 0.0
2017-Sep-16 14:00N 34°39' E 135°28'0 0.0
2017-Sep-16 13:30N 34°39' E 135°28'0 0.0
2017-Sep-16 13:00N 34°39' E 135°28'0 0.0
2017-Sep-16 12:30N 34°39' E 135°28'0 0.0
2017-Sep-16 12:00N 34°39' E 135°28'0 0.0
2017-Sep-16 11:30N 34°39' E 135°28'0 0.0
2017-Sep-16 11:00N 34°39' E 135°28'0 0.0
2017-Sep-16 10:30N 34°39' E 135°28'0 0.0
2017-Sep-16 09:59N 34°39' E 135°28'0 0.0
2017-Sep-16 09:30N 34°39' E 135°28'0 0.0
2017-Sep-16 00:17N 34°39' E 135°28'0 0.0
2017-Sep-15 23:53N 34°39' E 135°28'0 0.0
2017-Sep-15 23:18N 34°39' E 135°28'0 0.0
2017-Sep-15 23:00N 34°39' E 135°28'0 0.0
2017-Sep-15 21:56N 34°39' E 135°28'0 0.0
2017-Sep-15 21:23N 34°39' E 135°28'0 0.0
2017-Sep-15 21:00N 34°39' E 135°28'0 0.0
2017-Sep-15 20:19N 34°39' E 135°28'0 0.0
2017-Sep-15 19:51N 34°39' E 135°28'0 0.0
2017-Sep-15 17:33N 34°39' E 135°28'0 0.0
2017-Sep-15 17:14N 34°39' E 135°28'0 0.0
2017-Sep-15 17:00N 34°39' E 135°28'0 0.0
2017-Sep-15 16:30N 34°39' E 135°28'0 0.0
2017-Sep-15 16:00N 34°39' E 135°28'0 0.0
2017-Sep-15 15:30N 34°39' E 135°28'0 0.0
2017-Sep-15 15:00N 34°39' E 135°28'0 0.0
2017-Sep-15 14:30N 34°39' E 135°28'0 0.0
2017-Sep-15 13:54N 34°39' E 135°28'0 0.0
2017-Sep-15 13:27N 34°39' E 135°28'0 0.0
2017-Sep-15 12:55N 34°39' E 135°28'0 0.0
2017-Sep-15 12:25N 34°39' E 135°28'0 0.0
2017-Sep-13 19:47N 34°39' E 135°28'0 0.0
2017-Sep-12 21:13N 34°39' E 135°28'0 0.0
2017-Sep-12 11:34N 34°39' E 135°28'0 0.0
2017-Sep-12 11:18N 34°39' E 135°28'0 0.0
2017-Sep-12 10:54N 34°39' E 135°28'  
Track history (hours):
 
Tides and Currents Weather Stations Pressure Air Temp Water Temp Dewpoint Dewpoint Depression Visibility Wind Speed Wind Dir Waves Ship Positions

No 32takemaru

Last reported at 2017-Sep-21 23:28 UTC. Time now 2017-Sep-22 09:47 UTC.
Position N 34°39' E 135°28'.

Length 38 m; draft 2.8 m.

Type: Tug. MMSI: 431000341.

Date/timePositionNaut miles runAvg speedWind from/ knotsBaromVisibWave heightAir tempDewpointWater temp
2017-Sep-21 23:28N 34°39' E 135°28'1 2.9
2017-Sep-21 22:57N 34°40' E 135°27'0 0.4
2017-Sep-21 22:30N 34°40' E 135°27'2 4.1
2017-Sep-21 22:00N 34°39' E 135°24'0 0.4
2017-Sep-21 21:28N 34°39' E 135°24'2 4.4
2017-Sep-21 21:00N 34°39' E 135°27'1 0.1
2017-Sep-21 11:34N 34°39' E 135°28'1 8.2
2017-Sep-21 11:30N 34°39' E 135°27'2 3.4
2017-Sep-21 11:00N 34°39' E 135°25'1 2.2
2017-Sep-21 10:30N 34°39' E 135°24'3 5.6
2017-Sep-21 09:59N 34°39' E 135°27'0 0.0
2017-Sep-20 23:27N 34°39' E 135°28'2 4.3
2017-Sep-20 22:59N 34°39' E 135°26'2 3.7
2017-Sep-20 22:30N 34°38' E 135°23'0 0.4
2017-Sep-20 22:00N 34°39' E 135°24'0 0.7
2017-Sep-20 21:30N 34°39' E 135°24'0 0.2
2017-Sep-20 21:00N 34°39' E 135°24'0 0.1
2017-Sep-20 20:30N 34°39' E 135°24'3 0.4
2017-Sep-20 12:13N 34°39' E 135°28'0 0.0
2017-Sep-20 12:00N 34°39' E 135°28'0 0.0
2017-Sep-20 11:30N 34°39' E 135°28'0 0.0
2017-Sep-20 11:00N 34°39' E 135°28'0 0.0
2017-Sep-19 22:25N 34°39' E 135°28'0 0.0
2017-Sep-19 21:45N 34°39' E 135°28'0 0.0
2017-Sep-18 23:53N 34°39' E 135°28'0 0.0
2017-Sep-18 23:09N 34°39' E 135°28'0 0.0
2017-Sep-18 23:00N 34°39' E 135°28'0 0.0
2017-Sep-18 22:16N 34°39' E 135°28'0 0.0
2017-Sep-18 21:57N 34°39' E 135°28'0 0.0
2017-Sep-18 21:30N 34°39' E 135°28'0 0.0
2017-Sep-18 20:54N 34°39' E 135°28'0 0.0
2017-Sep-18 18:55N 34°39' E 135°28'0 0.0
2017-Sep-18 18:14N 34°39' E 135°28'0 0.0
2017-Sep-18 18:00N 34°39' E 135°28'0 0.0
2017-Sep-18 17:27N 34°39' E 135°28'0 0.0
2017-Sep-18 16:52N 34°39' E 135°28'0 0.0
2017-Sep-18 16:00N 34°39' E 135°28'0 0.0
2017-Sep-18 15:29N 34°39' E 135°28'0 0.0
2017-Sep-18 15:00N 34°39' E 135°28'0 0.0
2017-Sep-18 14:17N 34°39' E 135°28'0 0.0
2017-Sep-18 10:45N 34°39' E 135°28'0 0.0
2017-Sep-18 10:22N 34°39' E 135°28'0 0.0
2017-Sep-18 09:50N 34°39' E 135°28'0 0.0
2017-Sep-18 09:27N 34°39' E 135°28'0 0.0
2017-Sep-18 08:56N 34°39' E 135°28'0 0.0
2017-Sep-18 08:28N 34°39' E 135°28'0 0.0
2017-Sep-18 07:09N 34°39' E 135°28'0 0.0
2017-Sep-18 06:53N 34°39' E 135°28'0 0.0
2017-Sep-18 06:29N 34°39' E 135°28'0 0.0
2017-Sep-18 05:53N 34°39' E 135°28'0 0.0
2017-Sep-18 05:30N 34°39' E 135°28'0 0.0
2017-Sep-18 04:59N 34°39' E 135°28'0 0.0
2017-Sep-18 04:29N 34°39' E 135°28'0 0.0
2017-Sep-18 03:45N 34°39' E 135°28'0 0.0
2017-Sep-18 03:30N 34°39' E 135°28'0 0.0
2017-Sep-18 03:00N 34°39' E 135°28'0 0.0
2017-Sep-18 02:29N 34°39' E 135°28'0 0.0
2017-Sep-18 02:00N 34°39' E 135°28'0 0.0
2017-Sep-18 01:27N 34°39' E 135°28'0 0.0
2017-Sep-18 00:59N 34°39' E 135°28'0 0.0
2017-Sep-18 00:29N 34°39' E 135°28'0 0.0
2017-Sep-18 00:00N 34°39' E 135°28'0 0.0
2017-Sep-17 23:30N 34°39' E 135°28'0 0.0
2017-Sep-17 23:00N 34°39' E 135°28'0 0.0
2017-Sep-17 22:30N 34°39' E 135°28'0 0.0
2017-Sep-17 22:00N 34°39' E 135°28'0 0.0
2017-Sep-17 21:29N 34°39' E 135°28'0 0.0
2017-Sep-17 21:00N 34°39' E 135°28'0 0.0
2017-Sep-17 20:30N 34°39' E 135°28'0 0.0
2017-Sep-17 20:00N 34°39' E 135°28'0 0.0
2017-Sep-17 19:30N 34°39' E 135°28'0 0.0
2017-Sep-17 19:00N 34°39' E 135°28'0 0.0
2017-Sep-17 18:30N 34°39' E 135°28'0 0.0
2017-Sep-17 18:00N 34°39' E 135°28'0 0.0
2017-Sep-17 17:30N 34°39' E 135°28'0 0.0
2017-Sep-17 17:00N 34°39' E 135°28'0 0.0
2017-Sep-17 16:30N 34°39' E 135°28'0 0.0
2017-Sep-17 16:00N 34°39' E 135°28'0 0.0
2017-Sep-17 15:30N 34°39' E 135°28'0 0.0
2017-Sep-17 15:00N 34°39' E 135°28'0 0.0
2017-Sep-17 14:30N 34°39' E 135°28'0 0.0
2017-Sep-17 14:00N 34°39' E 135°28'0 0.0
2017-Sep-17 13:16N 34°39' E 135°28'0 0.0
2017-Sep-17 12:54N 34°39' E 135°28'0 0.0
2017-Sep-17 12:29N 34°39' E 135°28'0 0.0
2017-Sep-17 02:07N 34°39' E 135°28'0 0.0
2017-Sep-17 01:55N 34°39' E 135°28'0 0.0
2017-Sep-17 01:24N 34°39' E 135°28'0 0.0
2017-Sep-17 00:57N 34°39' E 135°28'0 0.0
2017-Sep-17 00:30N 34°39' E 135°28'0 0.0
2017-Sep-17 00:00N 34°39' E 135°28'0 0.0
2017-Sep-16 23:30N 34°39' E 135°28'0 0.0
2017-Sep-16 23:00N 34°39' E 135°28'0 0.0
2017-Sep-16 22:30N 34°39' E 135°28'0 0.0
2017-Sep-16 22:00N 34°39' E 135°28'0 0.0
2017-Sep-16 21:30N 34°39' E 135°28'0 0.0
2017-Sep-16 21:00N 34°39' E 135°28'0 0.0
2017-Sep-16 20:30N 34°39' E 135°28'0 0.0
2017-Sep-16 20:00N 34°39' E 135°28'0 0.0
2017-Sep-16 19:30N 34°39' E 135°28'0 0.0
2017-Sep-16 19:00N 34°39' E 135°28'0 0.0
2017-Sep-16 18:30N 34°39' E 135°28'0 0.0
2017-Sep-16 18:00N 34°39' E 135°28'0 0.0
2017-Sep-16 17:30N 34°39' E 135°28'0 0.0
2017-Sep-16 17:00N 34°39' E 135°28'0 0.0
2017-Sep-16 16:30N 34°39' E 135°28'0 0.0
2017-Sep-16 16:00N 34°39' E 135°28'0 0.0
2017-Sep-16 15:30N 34°39' E 135°28'0 0.0
2017-Sep-16 14:59N 34°39' E 135°28'0 0.0
2017-Sep-16 14:30N 34°39' E 135°28'0 0.0
2017-Sep-16 14:00N 34°39' E 135°28'0 0.0
2017-Sep-16 13:30N 34°39' E 135°28'0 0.0
2017-Sep-16 13:00N 34°39' E 135°28'0 0.0
2017-Sep-16 12:30N 34°39' E 135°28'0 0.0
2017-Sep-16 12:00N 34°39' E 135°28'0 0.0
2017-Sep-16 11:30N 34°39' E 135°28'0 0.0
2017-Sep-16 11:00N 34°39' E 135°28'0 0.0
2017-Sep-16 10:30N 34°39' E 135°28'0 0.0
2017-Sep-16 09:59N 34°39' E 135°28'0 0.0
2017-Sep-16 09:30N 34°39' E 135°28'0 0.0
2017-Sep-16 00:17N 34°39' E 135°28'0 0.0
2017-Sep-15 23:53N 34°39' E 135°28'0 0.0
2017-Sep-15 23:18N 34°39' E 135°28'0 0.0
2017-Sep-15 23:00N 34°39' E 135°28'0 0.0
2017-Sep-15 21:56N 34°39' E 135°28'0 0.0
2017-Sep-15 21:23N 34°39' E 135°28'0 0.0
2017-Sep-15 21:00N 34°39' E 135°28'0 0.0
2017-Sep-15 20:19N 34°39' E 135°28'0 0.0
2017-Sep-15 19:51N 34°39' E 135°28'0 0.0
2017-Sep-15 17:33N 34°39' E 135°28'0 0.0
2017-Sep-15 17:14N 34°39' E 135°28'0 0.0
2017-Sep-15 17:00N 34°39' E 135°28'0 0.0
2017-Sep-15 16:30N 34°39' E 135°28'0 0.0
2017-Sep-15 16:00N 34°39' E 135°28'0 0.0
2017-Sep-15 15:30N 34°39' E 135°28'0 0.0
2017-Sep-15 15:00N 34°39' E 135°28'0 0.0
2017-Sep-15 14:30N 34°39' E 135°28'0 0.0
2017-Sep-15 13:54N 34°39' E 135°28'0 0.0
2017-Sep-15 13:27N 34°39' E 135°28'0 0.0
2017-Sep-15 12:55N 34°39' E 135°28'0 0.0
2017-Sep-15 12:25N 34°39' E 135°28'0 0.0
2017-Sep-13 19:47N 34°39' E 135°28'0 0.0
2017-Sep-12 21:13N 34°39' E 135°28'0 0.0
2017-Sep-12 11:34N 34°39' E 135°28'0 0.0
2017-Sep-12 11:18N 34°39' E 135°28'0 0.0
2017-Sep-12 10:54N 34°39' E 135°28'  

Dump ship's entire track history